createdAt,value
2023-01-27T02:15:55.183Z,115.80
2023-01-27T02:18:25.012Z,126.60
2023-01-27T02:20:54.596Z,87.10
2023-01-27T02:23:53.652Z,64.40
2023-01-27T02:26:29.086Z,77.80
2023-01-27T02:29:00.022Z,50.70
2023-01-27T02:31:28.865Z,41.30
2023-01-27T02:34:04.429Z,41.00
2023-01-27T02:36:36.744Z,57.10
2023-01-27T02:39:05.540Z,57.40
2023-01-27T02:41:37.905Z,55.90
2023-01-27T02:44:06.938Z,59.10
2023-01-27T02:46:37.314Z,48.50
2023-01-27T02:49:05.817Z,20.70
2023-01-27T02:51:36.139Z,14.40
2023-01-27T02:54:05.109Z,13.40
2023-01-27T02:56:33.684Z,19.50
2023-01-27T02:59:02.921Z,28.50
2023-01-27T03:04:06.278Z,19.90
2023-01-27T03:06:40.127Z,22.00
2023-01-27T03:09:09.320Z,26.80
2023-01-27T03:11:58.222Z,28.30
2023-01-27T03:14:45.936Z,47.60
2023-01-27T03:17:34.108Z,184.30
2023-01-27T03:20:03.239Z,206.90
2023-01-27T03:22:32.104Z,223.60
2023-01-27T03:25:04.320Z,132.30
2023-01-27T03:27:32.911Z,54.20
2023-01-27T03:30:36.999Z,33.80
2023-01-27T03:33:32.426Z,21.90
2023-01-27T03:36:23.997Z,18.40
2023-01-27T03:39:11.646Z,15.60
2023-01-27T03:41:59.066Z,15.10
2023-01-27T03:44:47.172Z,12.00
2023-01-27T03:47:16.601Z,11.20
2023-01-27T03:49:45.288Z,11.00
2023-01-27T03:52:13.768Z,14.00
2023-01-27T03:54:42.162Z,12.10
2023-01-27T03:57:11.195Z,10.90
2023-01-27T03:59:39.716Z,8.90
2023-01-27T04:02:27.200Z,9.90
2023-01-27T04:05:15.135Z,10.90
2023-01-27T04:07:44.530Z,12.50
2023-01-27T04:10:13.091Z,12.50
2023-01-27T04:12:41.835Z,11.30
2023-01-27T04:15:10.683Z,12.10
2023-01-27T04:17:42.177Z,11.70
2023-01-27T04:20:11.778Z,11.60
2023-01-27T04:22:40.287Z,11.90
2023-01-27T04:25:11.638Z,25.20
2023-01-27T04:30:12.674Z,96.40
2023-01-27T04:32:41.529Z,38.70
2023-01-27T04:35:11.013Z,29.50
2023-01-27T04:37:39.792Z,32.30
2023-01-27T04:40:09.779Z,49.60
2023-01-27T04:42:38.582Z,36.80
2023-01-27T04:45:08.127Z,27.40
2023-01-27T04:47:37.255Z,26.20
2023-01-27T04:50:06.633Z,19.10
2023-01-27T04:52:35.072Z,18.00
2023-01-27T04:55:06.567Z,15.30
2023-01-27T04:57:35.378Z,17.40
2023-01-27T05:00:06.283Z,17.30
2023-01-27T05:02:34.899Z,14.00
2023-01-27T05:05:06.179Z,13.80
2023-01-27T05:07:35.440Z,13.80
2023-01-27T05:10:04.098Z,12.40
2023-01-27T05:12:33.413Z,12.50
2023-01-27T05:15:02.083Z,13.40
2023-01-27T05:17:32.555Z,17.10
2023-01-27T05:20:01.356Z,15.80
2023-01-27T05:22:30.264Z,12.40
2023-01-27T05:24:58.756Z,13.10
2023-01-27T05:27:27.572Z,11.30
2023-01-27T05:29:55.990Z,14.20
2023-01-27T05:32:24.419Z,12.00
2023-01-27T05:34:55.447Z,11.50
2023-01-27T05:37:23.952Z,10.90
2023-01-27T05:39:52.765Z,11.70
2023-01-27T05:42:22.107Z,12.40
2023-01-27T05:44:50.696Z,13.20
2023-01-27T05:47:19.145Z,15.20
2023-01-27T05:49:47.651Z,17.10
2023-01-27T05:52:17.086Z,15.20
2023-01-27T05:54:46.021Z,13.60
2023-01-27T05:57:14.489Z,17.40
2023-01-27T05:59:43.867Z,19.10
2023-01-27T06:02:12.585Z,12.60
2023-01-27T06:04:41.246Z,12.10
2023-01-27T06:07:10.564Z,12.80
2023-01-27T06:09:39.097Z,11.70
2023-01-27T06:12:08.471Z,14.60
2023-01-27T06:14:38.184Z,12.20
2023-01-27T06:17:07.372Z,11.50
2023-01-27T06:19:36.025Z,12.40
2023-01-27T06:22:06.414Z,12.50
2023-01-27T06:24:35.043Z,12.40
2023-01-27T06:27:03.853Z,13.20
2023-01-27T06:29:34.179Z,14.20
2023-01-27T06:32:02.648Z,15.90
2023-01-27T06:34:31.699Z,15.20
2023-01-27T06:37:00.180Z,14.20
2023-01-27T06:39:29.841Z,15.20
2023-01-27T06:41:58.307Z,13.40
2023-01-27T06:44:26.818Z,13.20
2023-01-27T06:46:55.283Z,13.00
2023-01-27T06:49:24.273Z,12.90
2023-01-27T06:51:53.166Z,14.10
2023-01-27T06:54:22.204Z,13.30
2023-01-27T06:56:50.847Z,15.50
2023-01-27T06:59:19.533Z,13.70
2023-01-27T07:01:49.268Z,13.40
2023-01-27T07:04:20.688Z,14.00
2023-01-27T07:06:52.810Z,13.40
2023-01-27T07:09:23.695Z,14.00
2023-01-27T07:11:53.814Z,13.80
2023-01-27T07:14:22.709Z,15.00
2023-01-27T07:16:52.012Z,15.70
2023-01-27T07:19:21.202Z,14.50
2023-01-27T07:21:49.997Z,12.50
2023-01-27T07:24:19.757Z,14.80
2023-01-27T07:26:49.000Z,13.10
2023-01-27T07:29:17.798Z,16.10
2023-01-27T07:31:46.701Z,14.30
2023-01-27T07:34:15.597Z,13.40
2023-01-27T07:36:44.359Z,14.20
2023-01-27T07:39:14.987Z,13.00
2023-01-27T07:41:44.510Z,13.60
2023-01-27T07:44:17.587Z,13.40
2023-01-27T07:46:47.923Z,12.50
2023-01-27T07:49:17.208Z,12.80
2023-01-27T07:51:46.672Z,11.90
2023-01-27T07:54:15.506Z,12.90
2023-01-27T07:56:44.186Z,11.80
2023-01-27T07:59:13.285Z,12.90
2023-01-27T08:01:42.273Z,12.50
2023-01-27T08:04:11.073Z,14.80
2023-01-27T08:06:56.197Z,14.70
2023-01-27T08:09:42.534Z,13.20
2023-01-27T08:12:12.855Z,13.80
2023-01-27T08:14:41.540Z,13.90
2023-01-27T08:17:10.532Z,12.90
2023-01-27T08:19:39.341Z,14.70
2023-01-27T08:22:08.827Z,16.60
2023-01-27T08:24:37.927Z,14.20
2023-01-27T08:27:08.280Z,13.10
2023-01-27T08:29:37.032Z,12.30
2023-01-27T08:32:06.245Z,12.60
2023-01-27T08:34:35.223Z,13.20
2023-01-27T08:37:04.853Z,14.50
2023-01-27T08:39:34.372Z,13.70
2023-01-27T08:42:03.444Z,10.70
2023-01-27T08:44:32.535Z,10.70
2023-01-27T08:47:01.338Z,11.80
2023-01-27T08:49:32.878Z,13.20
2023-01-27T08:52:01.749Z,13.40
2023-01-27T08:54:31.557Z,14.50
2023-01-27T08:57:01.170Z,14.20
2023-01-27T08:59:31.281Z,16.00
2023-01-27T09:02:02.546Z,14.80
2023-01-27T09:04:31.321Z,17.10
2023-01-27T09:07:00.404Z,17.70
2023-01-27T09:09:30.327Z,18.70
2023-01-27T09:11:59.433Z,20.80
2023-01-27T09:14:29.803Z,19.70
2023-01-27T09:16:58.316Z,18.20
2023-01-27T09:19:27.276Z,18.80
2023-01-27T09:21:59.644Z,17.40
2023-01-27T09:24:34.605Z,18.70
2023-01-27T09:27:04.203Z,17.60
2023-01-27T09:29:33.966Z,17.50
2023-01-27T09:32:03.994Z,19.30
2023-01-27T09:34:32.829Z,16.70
2023-01-27T09:37:13.262Z,21.00
2023-01-27T09:39:47.561Z,16.80
2023-01-27T09:43:11.491Z,17.90
2023-01-27T09:45:47.418Z,17.50
2023-01-27T09:48:59.692Z,19.80
2023-01-27T09:51:35.280Z,23.00
2023-01-27T09:54:43.936Z,19.70
2023-01-27T09:57:37.157Z,17.10
2023-01-27T10:00:13.294Z,18.40
2023-01-27T10:03:01.939Z,16.20
2023-01-27T10:05:37.685Z,17.60
2023-01-27T10:08:45.355Z,17.50
2023-01-27T10:11:21.001Z,17.30
2023-01-27T10:14:05.921Z,16.10
2023-01-27T10:16:39.567Z,17.20
2023-01-27T10:19:16.943Z,29.40
2023-01-27T10:22:00.208Z,20.50
2023-01-27T10:24:39.604Z,20.80
2023-01-27T10:27:22.409Z,22.10
2023-01-27T10:29:59.238Z,18.00
2023-01-27T10:32:46.637Z,18.50
2023-01-27T10:46:20.219Z,18.00
2023-01-27T10:48:51.817Z,16.40
2023-01-27T10:51:35.880Z,16.20
2023-01-27T10:54:17.560Z,15.90
2023-01-27T10:57:01.084Z,15.00
2023-01-27T11:00:10.847Z,15.70
2023-01-27T11:02:57.505Z,17.50
2023-01-27T11:05:29.605Z,16.20
2023-01-27T11:08:12.224Z,13.80
2023-01-27T11:11:04.871Z,13.20
2023-01-27T11:13:33.883Z,15.50
2023-01-27T11:16:21.534Z,16.90
2023-01-27T11:19:21.216Z,16.70
2023-01-27T11:22:07.144Z,12.30
2023-01-27T11:24:46.230Z,14.40
2023-01-27T11:27:13.306Z,14.90
2023-01-27T11:29:45.802Z,14.00
2023-01-27T11:32:48.731Z,14.20
2023-01-27T11:35:17.826Z,13.50
2023-01-27T11:37:48.569Z,14.90
2023-01-27T11:40:34.754Z,16.40
2023-01-27T11:43:02.126Z,14.10
2023-01-27T11:45:35.255Z,13.30
2023-01-27T11:48:04.009Z,14.00
2023-01-27T11:50:33.703Z,12.90
2023-01-27T11:53:09.346Z,15.50
2023-01-27T11:55:40.182Z,13.50
2023-01-27T11:58:12.968Z,13.10
2023-01-27T12:00:47.515Z,11.90
2023-01-27T12:03:22.979Z,14.40
2023-01-27T12:05:55.208Z,18.40
2023-01-27T12:08:42.143Z,14.00
2023-01-27T12:11:26.464Z,13.30
2023-01-27T12:13:55.050Z,13.50
2023-01-27T12:16:44.214Z,13.60
2023-01-27T12:19:22.221Z,12.70
2023-01-27T12:21:51.930Z,12.90
2023-01-27T12:24:33.315Z,15.20
2023-01-27T12:27:00.566Z,12.90
2023-01-27T12:29:32.120Z,14.60
2023-01-27T12:31:59.590Z,14.70
2023-01-27T12:34:36.770Z,15.20
2023-01-27T12:37:05.705Z,14.00
2023-01-27T12:39:42.937Z,14.80
2023-01-27T12:42:38.139Z,15.70
2023-01-27T12:45:31.628Z,15.40
2023-01-27T12:48:01.220Z,16.90
2023-01-27T12:50:33.187Z,15.90
2023-01-27T12:53:09.654Z,15.70
2023-01-27T12:55:46.219Z,15.80
2023-01-27T12:58:39.390Z,16.70
2023-01-27T13:01:31.108Z,16.70
2023-01-27T13:04:02.555Z,15.50
2023-01-27T13:06:41.554Z,15.70
2023-01-27T13:09:27.680Z,17.80
2023-01-27T13:11:58.720Z,16.30
2023-01-27T13:14:28.898Z,16.80
2023-01-27T13:16:58.656Z,15.10
2023-01-27T13:19:35.818Z,16.50
2023-01-27T13:22:04.532Z,17.40
2023-01-27T13:24:40.701Z,15.90
2023-01-27T13:27:15.206Z,16.60
2023-01-27T13:29:43.809Z,14.90
2023-01-27T13:32:19.856Z,14.60
2023-01-27T13:34:59.917Z,15.40
2023-01-27T13:37:48.652Z,13.70
2023-01-27T13:40:25.005Z,12.80
2023-01-27T13:43:01.068Z,12.20
2023-01-27T13:45:39.948Z,12.80
2023-01-27T13:48:37.426Z,12.30
2023-01-27T13:51:17.146Z,12.70
2023-01-27T13:53:46.707Z,12.10
2023-01-27T13:56:17.354Z,11.30
2023-01-27T13:59:19.411Z,12.90
2023-01-27T14:02:00.001Z,10.80
2023-01-27T14:04:52.770Z,11.80
2023-01-27T14:07:35.850Z,13.80
2023-01-27T14:10:16.948Z,13.00
2023-01-27T14:13:06.299Z,13.40
2023-01-27T14:15:55.477Z,13.00
2023-01-27T14:30:57.909Z,15.70
2023-01-27T14:33:58.493Z,15.00
2023-01-27T14:36:38.673Z,12.80
2023-01-27T14:39:29.327Z,14.90
2023-01-27T14:42:34.113Z,10.90
2023-01-27T14:45:16.256Z,11.00
2023-01-27T14:47:57.899Z,10.00
2023-01-27T14:50:43.849Z,9.90
2023-01-27T14:53:32.216Z,9.30
2023-01-27T14:56:37.122Z,9.10
2023-01-27T14:59:17.904Z,9.10
2023-01-27T15:01:58.388Z,9.50
2023-01-27T15:04:50.220Z,9.60
2023-01-27T15:07:37.547Z,10.40
2023-01-27T15:10:12.261Z,12.00
2023-01-27T15:12:53.219Z,11.30
2023-01-27T15:15:23.955Z,8.90
2023-01-27T15:18:17.723Z,9.00
2023-01-27T15:21:28.191Z,9.30
2023-01-27T15:24:18.658Z,10.30
2023-01-27T15:26:48.606Z,10.10
2023-01-27T15:29:17.919Z,10.40
2023-01-27T15:32:18.018Z,10.90
2023-01-27T15:34:52.812Z,9.10
2023-01-27T15:37:28.580Z,10.20
2023-01-27T15:40:12.148Z,10.20
2023-01-27T15:42:52.441Z,11.20
2023-01-27T15:45:32.397Z,9.90
2023-01-27T15:48:03.251Z,9.80
2023-01-27T15:50:34.931Z,9.70
2023-01-27T15:53:11.411Z,10.00
2023-01-27T15:55:48.438Z,9.20
2023-01-27T15:58:32.226Z,9.40
2023-01-27T16:01:01.271Z,10.50
2023-01-27T16:03:32.648Z,8.70
2023-01-27T16:06:12.835Z,8.80
2023-01-27T16:08:50.671Z,9.20
2023-01-27T16:11:28.731Z,10.20
2023-01-27T16:14:12.055Z,9.40
2023-01-27T16:17:03.082Z,10.00
2023-01-27T16:19:39.438Z,9.40
2023-01-27T16:22:23.062Z,9.00
2023-01-27T16:24:56.437Z,9.40
2023-01-27T16:27:36.780Z,10.40
2023-01-27T16:30:28.996Z,9.30
2023-01-27T16:33:06.611Z,9.80
2023-01-27T16:35:54.186Z,10.10
2023-01-27T16:38:30.484Z,10.20
2023-01-27T16:41:01.889Z,9.60
2023-01-27T16:43:41.197Z,10.20
2023-01-27T16:46:24.572Z,10.00
2023-01-27T16:48:53.454Z,9.40
2023-01-27T16:51:26.757Z,9.90
2023-01-27T16:53:59.640Z,10.00
2023-01-27T16:59:01.583Z,9.10
2023-01-27T17:01:51.602Z,9.00
2023-01-27T17:04:28.309Z,10.40
2023-01-27T17:07:13.718Z,9.70
2023-01-27T17:09:54.178Z,9.60
2023-01-27T17:12:31.230Z,10.80
2023-01-27T17:15:01.114Z,10.00
2023-01-27T17:17:31.216Z,9.30
2023-01-27T17:20:05.222Z,11.00
2023-01-27T17:22:41.912Z,9.30
2023-01-27T17:25:23.802Z,10.00
2023-01-27T17:27:52.490Z,10.10
2023-01-27T17:30:24.356Z,9.40
2023-01-27T17:32:58.109Z,10.10
2023-01-27T17:35:42.656Z,9.40
2023-01-27T17:38:15.697Z,10.70
2023-01-27T17:40:50.174Z,11.50
2023-01-27T17:43:29.670Z,10.20
2023-01-27T17:46:16.748Z,11.20
2023-01-27T17:48:52.199Z,10.40
2023-01-27T17:51:26.129Z,9.90
2023-01-27T17:53:55.030Z,10.50
2023-01-27T17:56:33.169Z,10.50
2023-01-27T17:59:05.134Z,10.40
2023-01-27T18:01:34.339Z,10.80
2023-01-27T18:04:03.962Z,11.80
2023-01-27T18:06:33.209Z,10.90
2023-01-27T18:09:03.211Z,10.10
2023-01-27T18:11:33.437Z,9.80
2023-01-27T18:14:13.893Z,10.50
2023-01-27T18:16:42.989Z,9.00
2023-01-27T18:19:21.505Z,10.20
2023-01-27T18:22:11.088Z,10.60
2023-01-27T18:24:40.994Z,9.50
2023-01-27T18:27:23.458Z,8.90
2023-01-27T18:29:57.167Z,10.40
2023-01-27T18:32:29.549Z,10.00
2023-01-27T18:35:01.439Z,10.00
2023-01-27T18:37:58.092Z,10.50
2023-01-27T18:40:43.429Z,10.60
2023-01-27T18:44:51.488Z,11.10
2023-01-27T18:48:31.536Z,9.50
2023-01-27T18:55:30.576Z,9.70
2023-01-27T18:58:16.420Z,11.70
2023-01-27T19:05:41.847Z,11.80
2023-01-27T19:09:21.031Z,12.10
2023-01-27T19:24:57.985Z,10.90
2023-01-27T19:31:37.677Z,11.80
2023-01-27T19:34:11.909Z,11.90
2023-01-27T19:36:45.798Z,11.40
2023-01-27T19:39:19.944Z,12.10
2023-01-27T19:41:54.528Z,12.70
2023-01-27T19:44:28.557Z,13.30
2023-01-27T19:46:58.951Z,11.80
2023-01-27T19:49:30.094Z,13.50
2023-01-27T19:52:00.127Z,12.00
2023-01-27T19:54:31.773Z,13.40
2023-01-27T19:57:00.759Z,11.90
2023-01-27T19:59:30.776Z,12.80
2023-01-27T20:02:02.793Z,11.50
2023-01-27T20:04:38.164Z,13.50
2023-01-27T20:07:13.256Z,12.00
2023-01-27T20:09:45.797Z,13.20
2023-01-27T20:12:18.402Z,12.60
2023-01-27T20:14:49.009Z,14.30
2023-01-27T20:17:29.018Z,13.40
2023-01-27T20:20:07.175Z,14.00
2023-01-27T20:22:38.272Z,13.50
2023-01-27T20:25:08.116Z,14.60
2023-01-27T20:27:37.005Z,13.80
2023-01-27T20:30:08.844Z,12.30
2023-01-27T20:32:38.576Z,12.80
2023-01-27T20:35:07.848Z,13.70
2023-01-27T20:37:36.560Z,14.20
2023-01-27T20:40:10.162Z,13.90
2023-01-27T20:42:40.703Z,14.30
2023-01-27T20:45:10.616Z,12.30
2023-01-27T20:47:39.615Z,14.00
2023-01-27T20:50:10.568Z,15.50
2023-01-27T20:52:40.874Z,13.60
2023-01-27T20:55:12.406Z,13.40
2023-01-27T20:57:46.843Z,15.50
2023-01-27T21:00:20.877Z,13.90
2023-01-27T21:02:49.857Z,13.20
2023-01-27T21:05:20.806Z,21.30
2023-01-27T21:07:56.608Z,21.00
2023-01-27T21:10:33.098Z,18.10
2023-01-27T21:13:23.094Z,13.60
2023-01-27T21:15:54.443Z,15.30
2023-01-27T21:18:28.032Z,16.00
2023-01-27T21:21:03.069Z,23.10
2023-01-27T21:23:35.101Z,24.80
2023-01-27T21:26:11.889Z,25.30
2023-01-27T21:28:42.307Z,23.70
2023-01-27T21:31:17.632Z,21.60
2023-01-27T21:33:50.509Z,32.80
2023-01-27T21:36:29.590Z,23.10
2023-01-27T21:39:03.784Z,17.10
2023-01-27T21:41:52.225Z,16.10
2023-01-27T21:44:47.995Z,15.00
2023-01-27T21:47:19.493Z,14.40
2023-01-27T21:50:08.273Z,12.70
2023-01-27T21:52:44.538Z,14.90
2023-01-27T21:55:22.142Z,13.50
2023-01-27T21:57:52.448Z,13.70
2023-01-27T22:00:24.149Z,14.30
2023-01-27T22:02:55.146Z,13.10
2023-01-27T22:05:29.185Z,16.30
2023-01-27T22:08:03.623Z,19.10
2023-01-27T22:10:34.728Z,18.90
2023-01-27T22:13:10.031Z,35.60
2023-01-27T22:15:41.260Z,72.60
2023-01-27T22:18:14.334Z,137.90
2023-01-27T22:20:52.854Z,172.90
2023-01-27T22:23:21.788Z,173.80
2023-01-27T22:26:00.342Z,270.30
2023-01-27T22:28:32.195Z,140.60
2023-01-27T22:31:03.368Z,110.70
2023-01-27T22:33:36.543Z,60.80
2023-01-27T22:36:09.349Z,79.40
2023-01-27T22:38:40.959Z,101.70
2023-01-27T22:41:16.200Z,83.50
2023-01-27T22:43:49.408Z,68.10
2023-01-27T22:46:19.102Z,59.30
2023-01-27T22:48:51.124Z,52.20
2023-01-27T22:51:22.910Z,86.40
2023-01-27T22:53:53.985Z,61.90
2023-01-27T22:56:25.931Z,44.60
2023-01-27T22:59:02.355Z,33.40
2023-01-27T23:01:34.499Z,29.70
2023-01-27T23:04:12.413Z,36.20
2023-01-27T23:06:41.893Z,28.00
2023-01-27T23:09:13.321Z,24.60
2023-01-27T23:11:42.922Z,23.40
2023-01-27T23:14:12.150Z,20.40
2023-01-27T23:16:41.982Z,16.80
2023-01-27T23:19:11.642Z,16.00
2023-01-27T23:21:41.149Z,14.40
2023-01-27T23:24:09.957Z,17.20
2023-01-27T23:26:39.235Z,23.00
2023-01-27T23:29:22.926Z,31.30
2023-01-27T23:31:56.203Z,22.40
2023-01-27T23:34:27.924Z,20.40
2023-01-27T23:36:57.249Z,16.30
2023-01-27T23:39:30.493Z,17.90
2023-01-27T23:42:01.969Z,38.10
2023-01-27T23:44:31.382Z,35.60
2023-01-27T23:47:00.571Z,52.00
2023-01-27T23:49:32.017Z,78.40
2023-01-27T23:52:00.919Z,348.60
2023-01-27T23:54:33.281Z,188.30
2023-01-27T23:57:02.587Z,115.20
2023-01-27T23:59:31.573Z,227.10
